Airfield :
LOGIN :

Register | Disclaimer

   EN    FR    IT 

 










Legend :    VFR   Marginal VFR   IFR   Intensive IFR   Very Intensive IFR
Visi :
Ceiling :
>= 8 km
>= 3000ft
5 to 8 km
1000 to 3000 ft
1500m to 5 km
500 to 1000 ft
800 to 1500m
200 to 500 ft
< 800m
< 200 ft
Symbols :   Thunderstorms  Fog  Heavy snow  Heavy precipitations  Wind > 20 kt
SIGMETs :     Misc.  Thunderstorms  Icing  Turbulence  Mountain Waves  Volcanic Ashes







- Airport Elevation : 177 ft
- IATA code : AYT


LTAI - Antalya

CURRENT METAR :
  • 170850Z 18008KT 130V210 9999 FEW030 28/18 Q1009 NOSIG RMK RWY18C 18008KT 150V230 RWY36R 16007KT 130V190 RWY18L 16007KT 100V210

EXPIRED METARs :
  • 170820Z 18007KT 140V210 9999 FEW030 28/17 Q1008 NOSIG RMK RWY18C 14006KT 090V200 RWY36R 14006KT 100V180 RWY18L 16006KT 110V210
  • 170750Z 16007KT 110V200 9999 FEW030 28/18 Q1008 NOSIG RMK RWY18C 15006KT 110V210 RWY36R 14007KT 100V170 RWY18L 15006KT 110V210
  • 170720Z 16006KT 100V200 9999 FEW030 27/18 Q1008 NOSIG RMK RWY18C 15007KT 120V180 RWY36R 13006KT 100V160 RWY18L 14006KT 110V190
  • 170650Z 17008KT 140V200 9999 FEW030 27/18 Q1008 NOSIG RMK RWY18C VRB03KT RWY36R 15008KT 120V180 RWY18L VRB03KT
  • 170620Z 04004KT 330V140 CAVOK 27/15 Q1008 NOSIG RMK RWY18C 07005KT 010V110 RWY36R VRB03KT RWY18L VRB03KT

TAF TAF LTAI
Valid from the 17 at 06:00 until the 18 at 06:00 UTC


170440Z 1706/1806 34006KT CAVOK
BECMG 1706/1709 18012KT SCT030
TEMPO 1712/1716 -SHRA FEW020CB BKN030
BECMG 1715/1719 34006KT
No reported NOTAMs for that airfield.



MET'MAP, your aeronautical weather chart ! - Copyright ORBIFLY December 2007 - Disclaimer

ORBIFLY MET'MAP TEAM :

Programming & Development : Alexandra Zaïnal
Concept & Development : Baudouin d'Aumeries
Co-Development & Prog : Marc-Olivier Méhu
Technical & hardware support : Manuel Goepfert

Contact : metmap@orbifly.com




SOURCES & CREDITS :

   NOAA